Latest Coastal Weather Observations for Cape Borda

IDT60701

Issued at 11:12 pm EDT Friday 24 March 2017 (issued every 10 minutes, with the page automatically refreshed every 10 minutes)

About coastal observations | Map of coastal stations | Coastal observations for TAS | Marine services | Other Formats
Station Details ID: 022823 Name: CAPE BORDA Lat: -35.75 Lon: 136.60 Height: 158.0 m
Data from the previous 72 hours. | See also: Recent months at Cape Borda
Date/Time
EDT
Temp
°C
Wind Pressure Rain since
9am
mm
Weather Cloud Vis
km
Sea
Height
m
Swell
Dir  Spd
kts
Gust
kts
hPa Trend Height
m
Period
s
Dir
24/11:00pm 18.4 S 7 8 1013.0 - 0.0 - - - - - - -
24/10:30pm 18.6 S 5 6 1013.1 - 0.0 - - - - - - -
24/10:00pm 18.8 SW 6 8 1013.0 - 0.0 - - - - - - -
24/09:30pm 19.2 WSW 6 8 1013.1 - 0.0 - - - - - - -
24/09:00pm 20.5 ENE 7 9 1012.2 - 0.0 - - - - - - -
24/08:30pm 20.1 E 10 12 1012.2 - 0.0 - - - - - - -
24/08:00pm 19.6 E 9 12 1012.3 - 0.0 - - - - - - -
24/07:30pm 19.6 SE 11 13 1012.0 - 0.0 - - - - - - -
24/07:00pm 20.0 SSE 11 14 1012.3 - 0.0 - - - - - - -
24/06:30pm 20.7 SSW 9 11 1012.6 - 0.0 - - - - - - -
24/06:00pm 21.3 SSW 9 12 1012.8 - 0.0 - - - - - - -
24/05:30pm 22.2 SW 11 13 1012.7 - 0.0 - - - - - - -
24/05:00pm 23.2 SW 5 6 1012.6 - 0.0 - - - - - - -
24/04:30pm 24.1 W 7 11 1012.9 - 0.0 - - - - - - -
24/04:00pm 24.1 WNW 5 9 1013.3 - 0.0 - - - - - - -
24/03:30pm 23.9 N 6 9 1013.1 R 0.0 Fine Mostly cloudy 20 <0.1 2.5 6 SW
24/03:00pm 23.7 NNE 7 9 1013.6 - 0.0 - - - - - - -
24/02:30pm 23.6 NNE 8 12 1013.7 - 0.0 - - - - - - -
24/02:00pm 23.6 NE 9 12 1013.9 - 0.0 - - - - - - -
24/01:30pm 23.3 NE 11 14 1014.0 - 0.0 - - - - - - -
24/01:00pm 23.1 NE 12 17 1014.2 - 0.0 - - - - - - -
24/12:30pm 23.4 NE 13 18 1014.2 - 0.0 - - - - - - -
24/12:00pm 22.9 NE 14 20 1014.0 - 0.0 - - - - - - -
24/11:30am 22.6 ENE 13 19 1014.0 - 0.0 - - - - - - -
24/11:00am 22.8 ENE 12 19 1014.5 - 0.0 - - - - - - -
24/10:30am 21.9 ENE 10 15 1014.4 - 0.0 - - - - - - -
24/10:00am 21.6 ENE 11 15 1014.2 - 0.0 - - - - - - -
24/09:30am 21.3 E 10 14 1014.1 F 0.0 Fine Mostly cloudy 15 <0.5 3.5 6 SW
24/09:00am 20.2 E 10 13 1014.6 - 0.0 - - - - - - -
24/08:30am 19.9 ENE 10 13 1014.5 - 0.0 - - - - - - -
24/08:00am 19.9 E 10 13 1014.6 - 0.0 - - - - - - -
24/07:30am 20.1 ENE 11 14 1014.4 - 0.0 - - - - - - -
24/07:00am 20.4 ENE 13 17 1013.7 - 0.0 - - - - - - -
24/06:30am 20.7 ENE 14 19 1013.2 - 0.0 - - - - - - -
24/06:00am 20.5 ENE 13 19 1013.6 - 0.0 - - - - - - -
24/05:30am 18.8 E 11 14 1013.6 - 0.0 - - - - - - -
24/05:00am 18.3 E 10 14 1014.4 - 0.0 - - - - - - -
24/04:30am 18.2 E 11 14 1014.2 - 0.0 - - - - - - -
24/04:00am 18.3 E 11 15 1014.4 - 0.0 - - - - - - -
24/03:30am 18.3 ESE 12 17 1014.3 - 0.0 - - - - - - -
24/03:00am 18.0 ESE 12 16 1015.2 - 0.0 - - - - - - -
24/02:30am 16.9 ESE 11 14 1015.4 - 0.0 - - - - - - -
24/02:00am 16.6 ESE 11 15 1015.9 - 0.0 - - - - - - -
24/01:30am 16.6 ESE 12 16 1016.1 - 0.0 - - - - - - -
24/01:00am 16.6 ESE 13 18 1016.3 - 0.0 - - - - - - -
24/12:30am 16.3 ESE 13 19 1016.6 - 0.0 - - - - - - -
24/12:00am 16.2 ESE 12 16 1017.2 - 0.0 - - - - - - -
 
Date/Time
EDT
Temp
°C
Wind Pressure Rain since
9am
mm
Weather Cloud Vis
km
Sea
Height
m
Swell
Dir  Spd
kts
Gust
kts
hPa Trend Height
m
Period
s
Dir
23/11:30pm 16.2 ESE 13 17 1017.3 - 0.0 - - - - - - -
23/11:00pm 16.3 ESE 12 15 1017.8 - 0.0 - - - - - - -
23/10:30pm 16.1 ESE 12 15 1017.6 - 0.0 - - - - - - -
23/10:00pm 16.1 ESE 13 19 1017.4 - 0.0 - - - - - - -
23/09:30pm 16.1 ESE 13 17 1017.2 - 0.0 - - - - - - -
23/09:00pm 16.2 ESE 10 15 1017.5 - 0.0 - - - - - - -
23/08:30pm 16.5 ESE 13 18 1016.7 - 0.0 - - - - - - -
23/08:00pm 17.0 ESE 13 17 1016.7 - 0.0 - - - - - - -
23/07:30pm 17.5 ESE 11 17 1016.6 - 0.0 - - - - - - -
23/07:00pm 17.8 ESE 13 19 1016.7 - 0.0 - - - - - - -
23/06:30pm 18.5 ESE 12 16 1016.5 - 0.0 - - - - - - -
23/06:00pm 19.7 ESE 11 16 1016.6 - 0.0 - - - - - - -
23/05:30pm 20.8 ESE 14 19 1016.3 - 0.0 - - - - - - -
23/05:00pm 22.9 SE 10 14 1016.8 - 0.0 - - - - - - -
23/04:30pm 21.3 W 5 7 1017.1 - 0.0 - - - - - - -
23/04:00pm 21.5 W 5 7 1017.1 - 0.0 - - - - - - -
23/03:30pm 23.4 ESE 7 11 1016.8 - 0.0 - - - - - - -
23/03:00pm 21.4 NW 6 10 1017.1 - 0.0 - - - - - - -
23/02:30pm 21.6 N 4 7 1017.5 - 0.0 - - - - - - -
23/02:00pm 21.8 ENE 7 12 1018.0 - 0.0 - - - - - - -
23/01:30pm 22.3 ESE 9 14 1018.3 - 0.0 - - - - - - -
23/01:00pm 21.3 E 11 16 1018.7 - 0.0 - - - - - - -
23/12:30pm 20.5 E 12 17 1018.8 - 0.0 - - - - - - -
23/12:00pm 19.5 E 14 19 1019.8 - 0.0 - - - - - - -
23/11:30am 18.5 ESE 13 18 1019.9 - 0.0 - - - - - - -
23/11:00am 18.1 ESE 13 18 1020.0 - 0.0 - - - - - - -
23/10:30am 17.7 ESE 13 19 1020.3 - 0.0 - - - - - - -
23/10:00am 17.5 ESE 10 18 1020.2 - 0.0 - - - - - - -
23/09:30am 17.2 E 10 15 1019.5 - 0.0 - - - - - - -
23/09:00am 16.7 ESE 11 16 1019.0 - 0.0 - - - - - - -
23/08:30am 16.4 ESE 8 13 1019.3 - 0.0 - - - - - - -
23/08:00am 16.3 ESE 12 16 1018.7 - 0.0 - - - - - - -
23/07:30am 16.2 ESE 10 14 1018.6 - 0.0 - - - - - - -
23/07:00am 16.3 ESE 10 14 1019.0 - 0.0 - - - - - - -
23/06:30am 16.4 ESE 10 15 1018.7 - 0.0 - - - - - - -
23/06:00am 16.2 ESE 9 15 1018.6 - 0.0 - - - - - - -
23/05:30am 16.0 ESE 12 20 1018.4 - 0.0 - - - - - - -
23/05:00am 15.4 ESE 12 16 1018.0 - 0.0 - - - - - - -
23/04:30am 15.4 ESE 16 23 1018.1 - 0.0 - - - - - - -
23/04:00am 15.5 SE 14 19 1018.5 - 0.0 - - - - - - -
23/03:30am 15.4 SE 12 18 1019.0 - 0.0 - - - - - - -
23/03:00am 15.1 SE 11 17 1019.6 - 0.0 - - - - - - -
23/02:30am 15.1 SE 12 16 1019.7 - 0.0 - - - - - - -
23/02:00am 15.0 SE 12 17 1019.5 - 0.0 - - - - - - -
23/01:30am 15.1 ESE 7 11 1019.8 - 0.0 - - - - - - -
23/01:00am 15.1 SE 12 19 1019.6 - 0.0 - - - - - - -
23/12:30am 15.3 ESE 12 21 1019.6 - 0.0 - - - - - - -
23/12:00am 15.4 SE 11 17 1019.8 - 0.0 - - - - - - -
 
Date/Time
EDT
Temp
°C
Wind Pressure Rain since
9am
mm
Weather Cloud Vis
km
Sea
Height
m
Swell
Dir  Spd
kts
Gust
kts
hPa Trend Height
m
Period
s
Dir
22/11:30pm 15.8 SE 11 17 1020.3 - 0.0 - - - - - - -
22/11:00pm 15.9 SE 7 12 1020.6 - 0.0 - - - - - - -
22/10:30pm 15.9 ESE 9 14 1020.4 - 0.0 - - - - - - -
22/10:00pm 16.0 ESE 9 13 1020.0 - 0.0 - - - - - - -
22/09:30pm 16.0 ESE 12 18 1019.4 - 0.0 - - - - - - -
22/09:00pm 16.1 ESE 11 20 1019.4 - 0.0 - - - - - - -
22/08:30pm 16.0 ESE 10 17 1019.1 - 0.0 - - - - - - -
22/08:00pm 16.2 SE 13 18 1018.9 - 0.0 - - - - - - -
22/07:30pm 16.5 SE 14 21 1018.9 - 0.0 - - - - - - -
22/07:00pm 16.8 SE 12 19 1018.8 - 0.0 - - - - - - -
22/06:30pm 17.0 SE 12 18 1018.2 - 0.0 - - - - - - -
22/06:00pm 17.3 SE 13 19 1018.3 - 0.0 - - - - - - -
22/05:30pm 17.4 SE 11 19 1018.7 - 0.0 - - - - - - -
22/05:00pm 17.7 SE 11 17 1018.7 - 0.0 - - - - - - -
22/04:30pm 17.8 SE 12 17 1018.8 - 0.0 - - - - - - -
22/04:00pm 17.8 SE 12 16 1018.8 - 0.0 - - - - - - -
22/03:30pm 18.3 SE 10 15 1018.7 - 0.0 - - - - - - -
22/03:00pm 18.6 SE 13 19 1019.2 - 0.0 - - - - - - -
22/02:30pm 18.5 SE 13 18 1019.3 - 0.0 - - - - - - -
22/02:00pm 18.8 SE 13 19 1019.3 - 0.0 - - - - - - -
22/01:30pm 18.7 SE 13 20 1019.5 - 0.0 - - - - - - -
22/01:00pm 18.0 SE 13 19 1019.8 - 0.0 - - - - - - -
22/12:30pm 18.5 SE 15 26 1019.7 - 0.0 - - - - - - -
22/12:00pm 18.7 SE 16 26 1019.9 - 0.0 - - - - - - -
22/11:57am 18.6 SE 16 26 1019.9 - 0.0 - - - - - - -
22/11:30am 18.5 SE 13 18 1020.3 - 0.0 - - - - - - -
22/11:00am 17.9 SE 15 24 1020.1 - 0.0 - - - - - - -
22/10:30am 18.0 SE 11 18 1019.9 - 0.0 - - - - - - -
22/10:00am 17.3 SE 12 16 1019.6 - 0.0 - - - - - - -
22/09:30am 17.1 SE 13 17 1019.1 - 9.8 - - - - - - -
22/09:00am 17.0 SE 10 14 1019.0 - 9.8 - - - - - - -
22/08:30am 16.9 SE 13 21 1018.5 - 9.8 - - - - - - -
22/08:00am 16.8 SE 11 16 1018.4 - 9.8 - - - - - - -
22/07:30am 16.9 ESE 8 17 1017.7 - 9.8 - - - - - - -
22/07:00am 17.0 ESE 5 12 1017.2 - 9.8 - - - - - - -
22/06:30am 16.8 SE 14 22 1016.3 - 9.8 - - - - - - -
22/06:00am 16.9 SE 8 15 1016.7 - 9.8 - - - - - - -
22/05:30am 16.6 SE 19 29 1015.5 - 9.8 - - - - - - -
22/05:11am 16.6 SE 22 32 1015.2 - 9.8 - - - - - - -
22/05:00am 16.7 SE 23 29 1015.2 - 9.8 - - - - - - -
22/04:30am 16.8 SE 21 29 1015.3 - 9.8 - - - - - - -
22/04:00am 17.1 SE 21 29 1015.5 - 9.8 - - - - - - -
22/03:30am 17.2 SE 22 30 1015.4 - 9.8 - - - - - - -
22/03:00am 17.4 SSE 19 29 1016.0 - 9.8 - - - - - - -
22/02:58am 17.3 SSE 19 29 1016.0 - 9.8 - - - - - - -
22/02:30am 17.3 SSE 19 26 1015.9 - 9.8 - - - - - - -
22/02:04am 17.2 SE 20 30 1015.6 - 9.8 - - - - - - -
22/02:00am 17.1 SE 19 25 1015.6 - 9.8 - - - - - - -
22/01:31am 17.1 SE 20 30 1015.4 - 9.8 - - - - - - -
22/01:30am 17.1 SE 21 30 1015.3 - 9.8 - - - - - - -
22/01:24am 17.1 SE 20 30 1015.1 - 9.8 - - - - - - -
22/01:00am 17.1 SE 19 25 1015.6 - 9.8 - - - - - - -
22/12:31am 17.4 SE 22 32 1015.4 - 9.8 - - - - - - -
22/12:30am 17.4 SE 23 32 1015.1 - 9.8 - - - - - - -
22/12:00am 17.5 SE 27 37 1014.7 - 9.8 - - - - - - -

Other Formats:

Comma delimited format used in spreadsheet applications
http://www.bom.gov.au/fwo/IDT60701/IDT60701.95805.axf

JavaScript Object Notation format (JSON) in row-major order
http://www.bom.gov.au/fwo/IDT60701/IDT60701.95805.json